sensor_id;sensor_type;location;lat;lon;timestamp;temperature;humidity
12704;DHT22;6416;52.182;7.650;2022-12-11T00:00:41;5.10;66.10
12704;DHT22;6416;52.182;7.650;2022-12-11T00:03:07;5.10;66.20
12704;DHT22;6416;52.182;7.650;2022-12-11T00:05:33;5.10;66.20
12704;DHT22;6416;52.182;7.650;2022-12-11T00:07:58;5.10;66.20
12704;DHT22;6416;52.182;7.650;2022-12-11T00:10:24;5.10;66.20
12704;DHT22;6416;52.182;7.650;2022-12-11T00:12:50;5.10;66.20
12704;DHT22;6416;52.182;7.650;2022-12-11T00:15:15;5.10;66.20
12704;DHT22;6416;52.182;7.650;2022-12-11T00:17:41;5.00;66.20
12704;DHT22;6416;52.182;7.650;2022-12-11T00:20:07;5.10;66.30
12704;DHT22;6416;52.182;7.650;2022-12-11T00:22:32;5.10;66.30
12704;DHT22;6416;52.182;7.650;2022-12-11T00:24:58;5.10;66.30
12704;DHT22;6416;52.182;7.650;2022-12-11T00:27:23;5.10;66.40
12704;DHT22;6416;52.182;7.650;2022-12-11T00:29:49;5.10;66.40
12704;DHT22;6416;52.182;7.650;2022-12-11T00:32:14;5.10;66.40
12704;DHT22;6416;52.182;7.650;2022-12-11T00:34:40;5.10;66.50
12704;DHT22;6416;52.182;7.650;2022-12-11T00:37:05;5.10;66.40
12704;DHT22;6416;52.182;7.650;2022-12-11T00:39:31;5.10;66.40
12704;DHT22;6416;52.182;7.650;2022-12-11T00:41:56;5.10;66.40
12704;DHT22;6416;52.182;7.650;2022-12-11T00:44:22;5.10;66.40
12704;DHT22;6416;52.182;7.650;2022-12-11T00:46:47;5.10;66.50
12704;DHT22;6416;52.182;7.650;2022-12-11T00:49:13;5.10;66.40
12704;DHT22;6416;52.182;7.650;2022-12-11T00:51:38;5.10;66.40
12704;DHT22;6416;52.182;7.650;2022-12-11T00:54:04;5.10;66.50
12704;DHT22;6416;52.182;7.650;2022-12-11T00:56:29;5.10;66.50
12704;DHT22;6416;52.182;7.650;2022-12-11T00:58:54;5.10;66.50
12704;DHT22;6416;52.182;7.650;2022-12-11T01:01:22;5.10;66.40
12704;DHT22;6416;52.182;7.650;2022-12-11T01:03:48;5.10;66.50
12704;DHT22;6416;52.182;7.650;2022-12-11T01:06:16;5.10;66.40
12704;DHT22;6416;52.182;7.650;2022-12-11T01:08:42;5.00;66.40
12704;DHT22;6416;52.182;7.650;2022-12-11T01:11:10;5.10;66.50
12704;DHT22;6416;52.182;7.650;2022-12-11T01:13:37;5.00;66.40
12704;DHT22;6416;52.182;7.650;2022-12-11T01:16:13;5.00;66.30
12704;DHT22;6416;52.182;7.650;2022-12-11T01:18:39;5.00;66.30
12704;DHT22;6416;52.182;7.650;2022-12-11T01:21:07;5.00;66.20
12704;DHT22;6416;52.182;7.650;2022-12-11T01:23:32;5.00;66.20
12704;DHT22;6416;52.182;7.650;2022-12-11T01:26:04;5.00;66.10
12704;DHT22;6416;52.182;7.650;2022-12-11T01:28:29;5.00;66.10
12704;DHT22;6416;52.182;7.650;2022-12-11T01:30:55;5.00;66.10
12704;DHT22;6416;52.182;7.650;2022-12-11T01:33:20;5.00;66.10
12704;DHT22;6416;52.182;7.650;2022-12-11T01:35:46;5.00;66.10
12704;DHT22;6416;52.182;7.650;2022-12-11T01:38:11;5.00;66.10
12704;DHT22;6416;52.182;7.650;2022-12-11T01:40:37;4.90;66.10
12704;DHT22;6416;52.182;7.650;2022-12-11T01:43:02;4.90;66.10
12704;DHT22;6416;52.182;7.650;2022-12-11T01:45:38;4.90;66.20
12704;DHT22;6416;52.182;7.650;2022-12-11T01:48:10;4.90;66.20
12704;DHT22;6416;52.182;7.650;2022-12-11T01:50:57;4.90;66.20
12704;DHT22;6416;52.182;7.650;2022-12-11T01:53:26;4.90;66.30
12704;DHT22;6416;52.182;7.650;2022-12-11T01:55:54;4.90;66.20
12704;DHT22;6416;52.182;7.650;2022-12-11T01:58:23;4.80;66.20
12704;DHT22;6416;52.182;7.650;2022-12-11T02:00:50;4.80;66.20
12704;DHT22;6416;52.182;7.650;2022-12-11T02:03:16;4.80;66.00
12704;DHT22;6416;52.182;7.650;2022-12-11T02:05:42;4.80;65.90
12704;DHT22;6416;52.182;7.650;2022-12-11T02:08:08;4.80;65.90
12704;DHT22;6416;52.182;7.650;2022-12-11T02:10:46;4.80;66.70
12704;DHT22;6416;52.182;7.650;2022-12-11T02:13:23;4.80;66.20
12704;DHT22;6416;52.182;7.650;2022-12-11T02:16:10;4.80;66.20
12704;DHT22;6416;52.182;7.650;2022-12-11T02:18:45;4.80;66.20
12704;DHT22;6416;52.182;7.650;2022-12-11T02:21:25;4.80;66.10
12704;DHT22;6416;52.182;7.650;2022-12-11T02:30:00;4.70;66.20
12704;DHT22;6416;52.182;7.650;2022-12-11T02:32:34;4.70;66.10
12704;DHT22;6416;52.182;7.650;2022-12-11T02:35:17;4.70;66.10
12704;DHT22;6416;52.182;7.650;2022-12-11T02:37:46;4.70;66.20
12704;DHT22;6416;52.182;7.650;2022-12-11T02:40:15;4.70;66.20
12704;DHT22;6416;52.182;7.650;2022-12-11T02:42:44;4.70;66.20
12704;DHT22;6416;52.182;7.650;2022-12-11T02:45:11;4.70;66.20
12704;DHT22;6416;52.182;7.650;2022-12-11T02:47:38;4.70;66.20
12704;DHT22;6416;52.182;7.650;2022-12-11T02:50:08;4.70;66.30
12704;DHT22;6416;52.182;7.650;2022-12-11T02:52:36;4.70;66.40
12704;DHT22;6416;52.182;7.650;2022-12-11T02:55:05;4.60;66.30
12704;DHT22;6416;52.182;7.650;2022-12-11T02:57:43;4.70;66.40
12704;DHT22;6416;52.182;7.650;2022-12-11T03:00:10;4.70;66.40
12704;DHT22;6416;52.182;7.650;2022-12-11T03:02:37;4.60;66.20
12704;DHT22;6416;52.182;7.650;2022-12-11T03:05:03;4.70;66.20
12704;DHT22;6416;52.182;7.650;2022-12-11T03:07:32;4.60;66.00
12704;DHT22;6416;52.182;7.650;2022-12-11T03:09:59;4.60;66.10
12704;DHT22;6416;52.182;7.650;2022-12-11T03:12:28;4.60;66.00
12704;DHT22;6416;52.182;7.650;2022-12-11T03:14:54;4.60;66.00
12704;DHT22;6416;52.182;7.650;2022-12-11T03:17:23;4.60;66.00
12704;DHT22;6416;52.182;7.650;2022-12-11T03:20:16;4.50;65.80
12704;DHT22;6416;52.182;7.650;2022-12-11T03:22:55;4.50;65.90
12704;DHT22;6416;52.182;7.650;2022-12-11T03:25:26;4.50;65.70
12704;DHT22;6416;52.182;7.650;2022-12-11T03:28:02;4.50;65.70
12704;DHT22;6416;52.182;7.650;2022-12-11T03:30:30;4.50;65.70
12704;DHT22;6416;52.182;7.650;2022-12-11T03:33:09;4.50;65.80
12704;DHT22;6416;52.182;7.650;2022-12-11T03:35:43;4.40;65.80
12704;DHT22;6416;52.182;7.650;2022-12-11T03:38:15;4.40;65.70
12704;DHT22;6416;52.182;7.650;2022-12-11T03:40:45;4.40;65.80
12704;DHT22;6416;52.182;7.650;2022-12-11T03:43:13;4.40;65.80
12704;DHT22;6416;52.182;7.650;2022-12-11T03:45:40;4.30;65.80
12704;DHT22;6416;52.182;7.650;2022-12-11T03:48:08;4.30;66.10
12704;DHT22;6416;52.182;7.650;2022-12-11T03:50:34;4.30;66.20
12704;DHT22;6416;52.182;7.650;2022-12-11T03:53:01;4.30;66.20
12704;DHT22;6416;52.182;7.650;2022-12-11T03:55:28;4.30;66.30
12704;DHT22;6416;52.182;7.650;2022-12-11T03:57:54;4.30;66.40
12704;DHT22;6416;52.182;7.650;2022-12-11T04:00:20;4.30;66.30
12704;DHT22;6416;52.182;7.650;2022-12-11T04:02:46;4.30;66.40
12704;DHT22;6416;52.182;7.650;2022-12-11T04:05:11;4.30;66.50
12704;DHT22;6416;52.182;7.650;2022-12-11T04:07:37;4.30;66.50
12704;DHT22;6416;52.182;7.650;2022-12-11T04:10:04;4.30;66.60
12704;DHT22;6416;52.182;7.650;2022-12-11T04:12:30;4.30;66.60
12704;DHT22;6416;52.182;7.650;2022-12-11T04:14:55;4.40;66.70
12704;DHT22;6416;52.182;7.650;2022-12-11T04:17:21;4.40;66.70
12704;DHT22;6416;52.182;7.650;2022-12-11T04:19:46;4.40;66.70
12704;DHT22;6416;52.182;7.650;2022-12-11T04:22:14;4.40;66.60
12704;DHT22;6416;52.182;7.650;2022-12-11T04:24:40;4.40;66.60
12704;DHT22;6416;52.182;7.650;2022-12-11T04:27:05;4.40;67.30
12704;DHT22;6416;52.182;7.650;2022-12-11T04:29:31;4.40;66.60
12704;DHT22;6416;52.182;7.650;2022-12-11T04:31:56;4.40;66.60
12704;DHT22;6416;52.182;7.650;2022-12-11T04:34:22;4.40;66.60
12704;DHT22;6416;52.182;7.650;2022-12-11T04:36:48;4.40;66.50
12704;DHT22;6416;52.182;7.650;2022-12-11T04:39:14;4.40;66.50
12704;DHT22;6416;52.182;7.650;2022-12-11T04:41:39;4.40;66.50
12704;DHT22;6416;52.182;7.650;2022-12-11T04:44:04;4.40;66.60
12704;DHT22;6416;52.182;7.650;2022-12-11T04:46:31;4.40;66.50
12704;DHT22;6416;52.182;7.650;2022-12-11T04:48:56;4.40;66.50
12704;DHT22;6416;52.182;7.650;2022-12-11T04:51:22;4.40;66.40
12704;DHT22;6416;52.182;7.650;2022-12-11T04:53:47;4.40;66.40
12704;DHT22;6416;52.182;7.650;2022-12-11T04:56:14;4.40;66.30
12704;DHT22;6416;52.182;7.650;2022-12-11T04:58:41;4.40;66.40
12704;DHT22;6416;52.182;7.650;2022-12-11T05:01:15;4.40;66.40
12704;DHT22;6416;52.182;7.650;2022-12-11T05:03:41;4.40;66.40
12704;DHT22;6416;52.182;7.650;2022-12-11T05:06:07;4.40;66.30
12704;DHT22;6416;52.182;7.650;2022-12-11T05:08:34;4.40;66.30
12704;DHT22;6416;52.182;7.650;2022-12-11T05:11:04;4.40;66.40
12704;DHT22;6416;52.182;7.650;2022-12-11T05:13:30;4.40;66.50
12704;DHT22;6416;52.182;7.650;2022-12-11T05:15:56;4.40;66.50
12704;DHT22;6416;52.182;7.650;2022-12-11T05:18:23;4.40;66.60
12704;DHT22;6416;52.182;7.650;2022-12-11T05:21:05;4.40;66.60
12704;DHT22;6416;52.182;7.650;2022-12-11T05:23:31;4.40;66.60
12704;DHT22;6416;52.182;7.650;2022-12-11T05:25:59;4.40;66.40
12704;DHT22;6416;52.182;7.650;2022-12-11T05:28:27;4.40;66.40
12704;DHT22;6416;52.182;7.650;2022-12-11T05:31:01;4.40;66.40
12704;DHT22;6416;52.182;7.650;2022-12-11T05:33:27;4.40;66.50
12704;DHT22;6416;52.182;7.650;2022-12-11T05:35:53;4.40;66.50
12704;DHT22;6416;52.182;7.650;2022-12-11T05:38:20;4.40;66.60
12704;DHT22;6416;52.182;7.650;2022-12-11T05:40:57;4.40;66.60
12704;DHT22;6416;52.182;7.650;2022-12-11T05:43:23;4.40;66.80
12704;DHT22;6416;52.182;7.650;2022-12-11T05:45:49;4.30;66.70
12704;DHT22;6416;52.182;7.650;2022-12-11T05:48:14;4.30;66.70
12704;DHT22;6416;52.182;7.650;2022-12-11T05:50:40;4.40;66.90
12704;DHT22;6416;52.182;7.650;2022-12-11T05:53:05;4.40;66.90
12704;DHT22;6416;52.182;7.650;2022-12-11T05:55:33;4.40;66.90
12704;DHT22;6416;52.182;7.650;2022-12-11T05:57:59;4.40;66.90
12704;DHT22;6416;52.182;7.650;2022-12-11T06:00:24;4.40;66.90
12704;DHT22;6416;52.182;7.650;2022-12-11T06:02:50;4.40;66.90
12704;DHT22;6416;52.182;7.650;2022-12-11T06:05:15;4.40;66.80
12704;DHT22;6416;52.182;7.650;2022-12-11T06:07:41;4.40;66.80
12704;DHT22;6416;52.182;7.650;2022-12-11T06:10:07;4.40;66.80
12704;DHT22;6416;52.182;7.650;2022-12-11T06:12:32;4.40;66.80
12704;DHT22;6416;52.182;7.650;2022-12-11T06:14:58;4.40;66.80
12704;DHT22;6416;52.182;7.650;2022-12-11T06:17:23;4.40;66.90
12704;DHT22;6416;52.182;7.650;2022-12-11T06:19:48;4.40;66.90
12704;DHT22;6416;52.182;7.650;2022-12-11T06:22:14;4.40;66.90
12704;DHT22;6416;52.182;7.650;2022-12-11T06:24:39;4.40;66.90
12704;DHT22;6416;52.182;7.650;2022-12-11T06:27:05;4.40;67.00
12704;DHT22;6416;52.182;7.650;2022-12-11T06:29:30;4.40;67.00
12704;DHT22;6416;52.182;7.650;2022-12-11T06:31:56;4.40;67.00
12704;DHT22;6416;52.182;7.650;2022-12-11T06:34:21;4.40;67.10
12704;DHT22;6416;52.182;7.650;2022-12-11T06:36:47;4.40;67.20
12704;DHT22;6416;52.182;7.650;2022-12-11T06:39:12;4.40;67.20
12704;DHT22;6416;52.182;7.650;2022-12-11T06:41:38;4.50;67.30
12704;DHT22;6416;52.182;7.650;2022-12-11T06:44:03;4.40;67.20
12704;DHT22;6416;52.182;7.650;2022-12-11T06:46:28;4.50;67.10
12704;DHT22;6416;52.182;7.650;2022-12-11T06:48:54;4.50;67.10
12704;DHT22;6416;52.182;7.650;2022-12-11T06:51:21;4.50;66.90
12704;DHT22;6416;52.182;7.650;2022-12-11T06:53:54;4.50;66.80
12704;DHT22;6416;52.182;7.650;2022-12-11T06:56:21;4.50;66.80
12704;DHT22;6416;52.182;7.650;2022-12-11T06:58:47;4.50;66.80
12704;DHT22;6416;52.182;7.650;2022-12-11T07:01:18;4.50;66.80
12704;DHT22;6416;52.182;7.650;2022-12-11T07:03:44;4.50;67.00
12704;DHT22;6416;52.182;7.650;2022-12-11T07:06:10;4.50;66.90
12704;DHT22;6416;52.182;7.650;2022-12-11T07:08:36;4.50;66.90
12704;DHT22;6416;52.182;7.650;2022-12-11T07:11:03;4.40;66.80
12704;DHT22;6416;52.182;7.650;2022-12-11T07:13:29;4.50;67.00
12704;DHT22;6416;52.182;7.650;2022-12-11T07:15:57;4.50;67.10
12704;DHT22;6416;52.182;7.650;2022-12-11T07:18:22;4.50;67.20
12704;DHT22;6416;52.182;7.650;2022-12-11T07:20:48;4.50;67.30
12704;DHT22;6416;52.182;7.650;2022-12-11T07:23:13;4.50;67.20
12704;DHT22;6416;52.182;7.650;2022-12-11T07:25:39;4.50;67.10
12704;DHT22;6416;52.182;7.650;2022-12-11T07:28:04;4.50;67.20
12704;DHT22;6416;52.182;7.650;2022-12-11T07:30:30;4.50;67.20
12704;DHT22;6416;52.182;7.650;2022-12-11T07:32:55;4.50;67.20
12704;DHT22;6416;52.182;7.650;2022-12-11T07:35:20;4.50;67.20
12704;DHT22;6416;52.182;7.650;2022-12-11T07:37:46;4.50;67.10
12704;DHT22;6416;52.182;7.650;2022-12-11T07:40:11;4.50;67.10
12704;DHT22;6416;52.182;7.650;2022-12-11T07:42:37;4.50;67.10
12704;DHT22;6416;52.182;7.650;2022-12-11T07:45:03;4.50;67.10
12704;DHT22;6416;52.182;7.650;2022-12-11T07:47:28;4.50;67.20
12704;DHT22;6416;52.182;7.650;2022-12-11T07:49:54;4.50;67.20
12704;DHT22;6416;52.182;7.650;2022-12-11T07:52:19;4.50;67.10
12704;DHT22;6416;52.182;7.650;2022-12-11T07:54:44;4.50;67.10
12704;DHT22;6416;52.182;7.650;2022-12-11T07:57:10;4.50;67.00
12704;DHT22;6416;52.182;7.650;2022-12-11T07:59:35;4.50;66.90
12704;DHT22;6416;52.182;7.650;2022-12-11T08:02:01;4.60;67.00
12704;DHT22;6416;52.182;7.650;2022-12-11T08:04:26;4.60;67.00
12704;DHT22;6416;52.182;7.650;2022-12-11T08:06:52;4.60;67.10
12704;DHT22;6416;52.182;7.650;2022-12-11T08:09:17;4.60;67.20
12704;DHT22;6416;52.182;7.650;2022-12-11T08:11:43;4.60;67.10
12704;DHT22;6416;52.182;7.650;2022-12-11T08:14:08;4.60;67.10
12704;DHT22;6416;52.182;7.650;2022-12-11T08:16:34;4.60;67.10
12704;DHT22;6416;52.182;7.650;2022-12-11T08:18:59;4.60;67.10
12704;DHT22;6416;52.182;7.650;2022-12-11T08:21:26;4.60;67.20
12704;DHT22;6416;52.182;7.650;2022-12-11T08:23:53;4.60;67.20
12704;DHT22;6416;52.182;7.650;2022-12-11T08:26:24;4.60;67.30
12704;DHT22;6416;52.182;7.650;2022-12-11T08:28:50;4.60;67.40
12704;DHT22;6416;52.182;7.650;2022-12-11T08:31:17;4.70;67.40
12704;DHT22;6416;52.182;7.650;2022-12-11T08:33:43;4.70;67.40
12704;DHT22;6416;52.182;7.650;2022-12-11T08:36:20;4.70;67.30
12704;DHT22;6416;52.182;7.650;2022-12-11T08:38:46;4.70;67.30
12704;DHT22;6416;52.182;7.650;2022-12-11T08:41:14;4.70;67.20
12704;DHT22;6416;52.182;7.650;2022-12-11T08:43:40;4.70;67.20
12704;DHT22;6416;52.182;7.650;2022-12-11T08:46:05;4.70;67.20
12704;DHT22;6416;52.182;7.650;2022-12-11T08:48:35;4.70;67.30
12704;DHT22;6416;52.182;7.650;2022-12-11T08:51:03;4.70;67.20
12704;DHT22;6416;52.182;7.650;2022-12-11T08:53:29;4.70;67.20
12704;DHT22;6416;52.182;7.650;2022-12-11T08:56:00;4.70;67.20
12704;DHT22;6416;52.182;7.650;2022-12-11T08:58:26;4.80;67.30
12704;DHT22;6416;52.182;7.650;2022-12-11T09:00:51;4.80;67.30
12704;DHT22;6416;52.182;7.650;2022-12-11T09:03:17;4.80;67.40
12704;DHT22;6416;52.182;7.650;2022-12-11T09:05:42;4.70;67.20
12704;DHT22;6416;52.182;7.650;2022-12-11T09:08:07;4.80;67.40
12704;DHT22;6416;52.182;7.650;2022-12-11T09:10:33;4.80;67.40
12704;DHT22;6416;52.182;7.650;2022-12-11T09:12:58;4.80;67.30
12704;DHT22;6416;52.182;7.650;2022-12-11T09:15:24;4.80;67.20
12704;DHT22;6416;52.182;7.650;2022-12-11T09:17:49;4.80;67.20
12704;DHT22;6416;52.182;7.650;2022-12-11T09:20:15;4.80;67.30
12704;DHT22;6416;52.182;7.650;2022-12-11T09:22:41;4.80;67.30
12704;DHT22;6416;52.182;7.650;2022-12-11T09:25:07;4.80;67.30
12704;DHT22;6416;52.182;7.650;2022-12-11T09:27:33;4.80;67.30
12704;DHT22;6416;52.182;7.650;2022-12-11T09:29:58;4.90;67.40
12704;DHT22;6416;52.182;7.650;2022-12-11T09:32:24;4.90;67.30
12704;DHT22;6416;52.182;7.650;2022-12-11T09:34:50;4.90;67.20
12704;DHT22;6416;52.182;7.650;2022-12-11T09:37:15;4.90;67.10
12704;DHT22;6416;52.182;7.650;2022-12-11T09:39:41;4.90;67.00
12704;DHT22;6416;52.182;7.650;2022-12-11T09:42:24;4.90;67.00
12704;DHT22;6416;52.182;7.650;2022-12-11T09:44:57;5.00;67.10
12704;DHT22;6416;52.182;7.650;2022-12-11T09:47:35;5.00;67.20
12704;DHT22;6416;52.182;7.650;2022-12-11T09:52:54;5.00;67.20
12704;DHT22;6416;52.182;7.650;2022-12-11T09:55:24;5.00;67.30
12704;DHT22;6416;52.182;7.650;2022-12-11T10:00:45;5.00;67.30
12704;DHT22;6416;52.182;7.650;2022-12-11T10:03:40;5.00;67.30
12704;DHT22;6416;52.182;7.650;2022-12-11T10:08:53;5.00;67.30
12704;DHT22;6416;52.182;7.650;2022-12-11T10:14:10;5.10;67.50
12704;DHT22;6416;52.182;7.650;2022-12-11T10:16:49;5.10;67.50
12704;DHT22;6416;52.182;7.650;2022-12-11T10:19:23;5.10;67.40
12704;DHT22;6416;52.182;7.650;2022-12-11T10:21:51;5.10;67.30
12704;DHT22;6416;52.182;7.650;2022-12-11T10:24:27;5.10;67.20
12704;DHT22;6416;52.182;7.650;2022-12-11T10:26:55;5.10;67.20
12704;DHT22;6416;52.182;7.650;2022-12-11T10:29:22;5.10;67.20
12704;DHT22;6416;52.182;7.650;2022-12-11T10:31:57;5.10;67.30
12704;DHT22;6416;52.182;7.650;2022-12-11T10:36:48;5.20;67.30
12704;DHT22;6416;52.182;7.650;2022-12-11T10:39:19;5.20;67.20
12704;DHT22;6416;52.182;7.650;2022-12-11T10:41:47;5.20;67.10
12704;DHT22;6416;52.182;7.650;2022-12-11T10:44:27;5.20;67.00
12704;DHT22;6416;52.182;7.650;2022-12-11T10:47:08;5.20;66.90
12704;DHT22;6416;52.182;7.650;2022-12-11T10:49:36;5.20;67.70
12704;DHT22;6416;52.182;7.650;2022-12-11T10:52:10;5.20;66.80
12704;DHT22;6416;52.182;7.650;2022-12-11T10:54:39;5.20;66.70
12704;DHT22;6416;52.182;7.650;2022-12-11T10:57:08;5.20;67.40
12704;DHT22;6416;52.182;7.650;2022-12-11T10:59:44;5.20;66.60
12704;DHT22;6416;52.182;7.650;2022-12-11T11:04:48;5.20;66.70
12704;DHT22;6416;52.182;7.650;2022-12-11T11:07:22;5.20;66.70
12704;DHT22;6416;52.182;7.650;2022-12-11T11:09:48;5.20;66.80
12704;DHT22;6416;52.182;7.650;2022-12-11T11:12:22;5.20;66.80
12704;DHT22;6416;52.182;7.650;2022-12-11T11:15:05;5.20;66.90
12704;DHT22;6416;52.182;7.650;2022-12-11T11:17:32;5.20;67.00
12704;DHT22;6416;52.182;7.650;2022-12-11T11:20:05;5.20;67.00
12704;DHT22;6416;52.182;7.650;2022-12-11T11:22:39;5.20;66.90
12704;DHT22;6416;52.182;7.650;2022-12-11T11:25:18;5.20;66.80
12704;DHT22;6416;52.182;7.650;2022-12-11T11:27:49;5.20;66.80
12704;DHT22;6416;52.182;7.650;2022-12-11T11:30:38;5.20;66.70
12704;DHT22;6416;52.182;7.650;2022-12-11T11:33:12;5.20;66.60
12704;DHT22;6416;52.182;7.650;2022-12-11T11:35:38;5.20;66.50
12704;DHT22;6416;52.182;7.650;2022-12-11T11:38:17;5.20;66.50
12704;DHT22;6416;52.182;7.650;2022-12-11T11:41:14;5.20;66.70
12704;DHT22;6416;52.182;7.650;2022-12-11T11:43:47;5.20;66.70
12704;DHT22;6416;52.182;7.650;2022-12-11T11:46:30;5.20;66.80
12704;DHT22;6416;52.182;7.650;2022-12-11T11:49:15;5.20;66.80
12704;DHT22;6416;52.182;7.650;2022-12-11T11:54:27;5.20;66.80
12704;DHT22;6416;52.182;7.650;2022-12-11T11:56:55;5.20;67.40
12704;DHT22;6416;52.182;7.650;2022-12-11T11:59:31;5.20;66.60
12704;DHT22;6416;52.182;7.650;2022-12-11T12:01:58;5.20;66.50
12704;DHT22;6416;52.182;7.650;2022-12-11T12:04:26;5.20;66.50
12704;DHT22;6416;52.182;7.650;2022-12-11T12:07:09;5.20;66.40
12704;DHT22;6416;52.182;7.650;2022-12-11T12:09:59;5.20;66.40
12704;DHT22;6416;52.182;7.650;2022-12-11T12:12:48;5.20;66.30
12704;DHT22;6416;52.182;7.650;2022-12-11T12:21:26;5.20;66.50
12704;DHT22;6416;52.182;7.650;2022-12-11T12:24:20;5.20;66.70
12704;DHT22;6416;52.182;7.650;2022-12-11T12:32:10;5.20;67.00
12704;DHT22;6416;52.182;7.650;2022-12-11T12:35:12;5.20;67.10
12704;DHT22;6416;52.182;7.650;2022-12-11T12:37:54;5.30;67.20
12704;DHT22;6416;52.182;7.650;2022-12-11T12:43:43;5.30;67.00
12704;DHT22;6416;52.182;7.650;2022-12-11T12:48:56;5.30;66.80
12704;DHT22;6416;52.182;7.650;2022-12-11T12:51:23;5.30;66.70
12704;DHT22;6416;52.182;7.650;2022-12-11T12:53:55;5.30;66.70
12704;DHT22;6416;52.182;7.650;2022-12-11T12:56:24;5.30;66.70
12704;DHT22;6416;52.182;7.650;2022-12-11T12:58:50;5.30;66.70
12704;DHT22;6416;52.182;7.650;2022-12-11T13:01:19;5.30;66.70
12704;DHT22;6416;52.182;7.650;2022-12-11T13:04:00;5.30;66.70
12704;DHT22;6416;52.182;7.650;2022-12-11T13:11:40;5.30;66.90
12704;DHT22;6416;52.182;7.650;2022-12-11T13:14:30;5.30;66.80
12704;DHT22;6416;52.182;7.650;2022-12-11T13:19:45;5.30;66.90
12704;DHT22;6416;52.182;7.650;2022-12-11T13:27:46;5.30;67.10
12704;DHT22;6416;52.182;7.650;2022-12-11T13:32:41;5.30;67.00
12704;DHT22;6416;52.182;7.650;2022-12-11T13:35:16;5.30;67.00
12704;DHT22;6416;52.182;7.650;2022-12-11T13:37:44;5.30;67.00
12704;DHT22;6416;52.182;7.650;2022-12-11T13:40:40;5.30;67.00
12704;DHT22;6416;52.182;7.650;2022-12-11T13:43:16;5.40;67.00
12704;DHT22;6416;52.182;7.650;2022-12-11T13:45:49;5.30;66.90
12704;DHT22;6416;52.182;7.650;2022-12-11T13:48:34;5.40;66.90
12704;DHT22;6416;52.182;7.650;2022-12-11T13:51:01;5.30;66.80
12704;DHT22;6416;52.182;7.650;2022-12-11T13:53:27;5.30;66.80
12704;DHT22;6416;52.182;7.650;2022-12-11T13:55:59;5.30;66.80
12704;DHT22;6416;52.182;7.650;2022-12-11T13:58:26;5.30;66.90
12704;DHT22;6416;52.182;7.650;2022-12-11T14:03:22;5.30;67.00
12704;DHT22;6416;52.182;7.650;2022-12-11T14:05:48;5.30;67.00
12704;DHT22;6416;52.182;7.650;2022-12-11T14:08:20;5.30;67.00
12704;DHT22;6416;52.182;7.650;2022-12-11T14:10:52;5.30;67.10
12704;DHT22;6416;52.182;7.650;2022-12-11T14:13:21;5.30;67.10
12704;DHT22;6416;52.182;7.650;2022-12-11T14:15:47;5.30;67.10
12704;DHT22;6416;52.182;7.650;2022-12-11T14:18:23;5.30;67.10
12704;DHT22;6416;52.182;7.650;2022-12-11T14:20:58;5.30;67.10
12704;DHT22;6416;52.182;7.650;2022-12-11T14:23:28;5.30;67.10
12704;DHT22;6416;52.182;7.650;2022-12-11T14:26:03;5.30;67.10
12704;DHT22;6416;52.182;7.650;2022-12-11T14:28:35;5.30;67.10
12704;DHT22;6416;52.182;7.650;2022-12-11T14:31:01;5.30;67.10
12704;DHT22;6416;52.182;7.650;2022-12-11T14:33:32;5.30;67.10
12704;DHT22;6416;52.182;7.650;2022-12-11T14:35:59;5.30;67.10
12704;DHT22;6416;52.182;7.650;2022-12-11T14:41:00;5.30;67.20
12704;DHT22;6416;52.182;7.650;2022-12-11T14:43:30;5.30;67.30
12704;DHT22;6416;52.182;7.650;2022-12-11T14:46:01;5.30;67.30
12704;DHT22;6416;52.182;7.650;2022-12-11T14:48:35;5.30;67.20
12704;DHT22;6416;52.182;7.650;2022-12-11T14:51:04;5.30;67.20
12704;DHT22;6416;52.182;7.650;2022-12-11T14:53:35;5.30;67.20
12704;DHT22;6416;52.182;7.650;2022-12-11T14:56:05;5.30;67.10
12704;DHT22;6416;52.182;7.650;2022-12-11T14:58:36;5.30;67.10
12704;DHT22;6416;52.182;7.650;2022-12-11T15:01:20;5.30;67.10
12704;DHT22;6416;52.182;7.650;2022-12-11T15:03:46;5.30;67.10
12704;DHT22;6416;52.182;7.650;2022-12-11T15:06:29;5.30;67.00
12704;DHT22;6416;52.182;7.650;2022-12-11T15:08:55;5.30;67.00
12704;DHT22;6416;52.182;7.650;2022-12-11T15:11:21;5.30;67.00
12704;DHT22;6416;52.182;7.650;2022-12-11T15:13:58;5.30;67.00
12704;DHT22;6416;52.182;7.650;2022-12-11T15:16:26;5.30;67.10
12704;DHT22;6416;52.182;7.650;2022-12-11T15:18:54;5.30;67.10
12704;DHT22;6416;52.182;7.650;2022-12-11T15:21:29;5.30;67.20
12704;DHT22;6416;52.182;7.650;2022-12-11T15:23:58;5.30;67.20
12704;DHT22;6416;52.182;7.650;2022-12-11T15:26:33;5.30;67.20
12704;DHT22;6416;52.182;7.650;2022-12-11T15:29:01;5.30;67.20
12704;DHT22;6416;52.182;7.650;2022-12-11T15:31:30;5.30;67.20
12704;DHT22;6416;52.182;7.650;2022-12-11T15:33:56;5.30;67.20
12704;DHT22;6416;52.182;7.650;2022-12-11T15:38:55;5.30;67.00
12704;DHT22;6416;52.182;7.650;2022-12-11T15:41:21;5.30;67.00
12704;DHT22;6416;52.182;7.650;2022-12-11T15:43:47;5.20;67.00
12704;DHT22;6416;52.182;7.650;2022-12-11T15:46:12;5.30;67.10
12704;DHT22;6416;52.182;7.650;2022-12-11T15:48:38;5.20;67.00
12704;DHT22;6416;52.182;7.650;2022-12-11T15:51:03;5.20;67.00
12704;DHT22;6416;52.182;7.650;2022-12-11T15:53:29;5.20;67.10
12704;DHT22;6416;52.182;7.650;2022-12-11T15:55:56;5.20;67.00
12704;DHT22;6416;52.182;7.650;2022-12-11T15:58:22;5.20;67.10
12704;DHT22;6416;52.182;7.650;2022-12-11T16:00:49;5.20;67.10
12704;DHT22;6416;52.182;7.650;2022-12-11T16:03:17;5.20;67.10
12704;DHT22;6416;52.182;7.650;2022-12-11T16:05:43;5.20;67.10
12704;DHT22;6416;52.182;7.650;2022-12-11T16:08:14;5.20;67.10
12704;DHT22;6416;52.182;7.650;2022-12-11T16:10:41;5.20;67.10
12704;DHT22;6416;52.182;7.650;2022-12-11T16:13:07;5.20;67.10
12704;DHT22;6416;52.182;7.650;2022-12-11T16:15:32;5.20;67.10
12704;DHT22;6416;52.182;7.650;2022-12-11T16:18:10;5.20;67.10
12704;DHT22;6416;52.182;7.650;2022-12-11T16:20:37;5.20;67.20
12704;DHT22;6416;52.182;7.650;2022-12-11T16:23:03;5.20;67.20
12704;DHT22;6416;52.182;7.650;2022-12-11T16:25:30;5.20;67.20
12704;DHT22;6416;52.182;7.650;2022-12-11T16:27:56;5.20;67.20
12704;DHT22;6416;52.182;7.650;2022-12-11T16:30:22;5.20;67.30
12704;DHT22;6416;52.182;7.650;2022-12-11T16:32:48;5.20;67.30
12704;DHT22;6416;52.182;7.650;2022-12-11T16:35:14;5.20;67.30
12704;DHT22;6416;52.182;7.650;2022-12-11T16:37:39;5.20;67.30
12704;DHT22;6416;52.182;7.650;2022-12-11T16:40:05;5.20;67.30
12704;DHT22;6416;52.182;7.650;2022-12-11T16:42:31;5.20;67.30
12704;DHT22;6416;52.182;7.650;2022-12-11T16:45:26;5.20;67.30
12704;DHT22;6416;52.182;7.650;2022-12-11T16:47:51;5.20;67.30
12704;DHT22;6416;52.182;7.650;2022-12-11T16:50:17;5.20;67.20
12704;DHT22;6416;52.182;7.650;2022-12-11T16:52:44;5.20;67.30
12704;DHT22;6416;52.182;7.650;2022-12-11T16:55:10;5.20;67.30
12704;DHT22;6416;52.182;7.650;2022-12-11T16:57:36;5.20;67.50
12704;DHT22;6416;52.182;7.650;2022-12-11T17:00:07;5.20;67.50
12704;DHT22;6416;52.182;7.650;2022-12-11T17:02:33;5.20;67.60
12704;DHT22;6416;52.182;7.650;2022-12-11T17:04:58;5.20;67.40
12704;DHT22;6416;52.182;7.650;2022-12-11T17:07:24;5.20;67.40
12704;DHT22;6416;52.182;7.650;2022-12-11T17:09:49;5.20;67.30
12704;DHT22;6416;52.182;7.650;2022-12-11T17:12:15;5.20;67.30
12704;DHT22;6416;52.182;7.650;2022-12-11T17:14:40;5.20;67.30
12704;DHT22;6416;52.182;7.650;2022-12-11T17:17:06;5.20;67.20
12704;DHT22;6416;52.182;7.650;2022-12-11T17:19:31;5.20;67.20